D/T METAR WX W/DIR W/SPE G/SPE TEMP DEWP
20/06/19 16:20 EGHE 201520Z 26015KT 9999 FEW022 17/12 Q1016 W (260°) 17.3mph 17°C 12°C
20/06/19 15:50 EGHE 201450Z 26013KT 9999 FEW017 17/12 Q1016 W (260°) 15.0mph 17°C 12°C
20/06/19 14:50 EGHE 201350Z 25013KT 9999 FEW016 18/13 Q1016 WSW (250°) 15.0mph 18°C 13°C
20/06/19 14:20 EGHE 201320Z 26014KT 9999 FEW016 17/12 Q1016 W (260°) 16.1mph 17°C 12°C
20/06/19 13:20 EGHE 201220Z 26013KT 9999 FEW015CB 17/13 Q1016 W (260°) 15.0mph 17°C 13°C
20/06/19 12:50 EGHE 201150Z 26013KT 9999 FEW015CB 17/13 Q1016 W (260°) 15.0mph 17°C 13°C
20/06/19 12:20 EGHE 201120Z 26013KT 9999 FEW015CB 16/13 Q1016 W (260°) 15.0mph 16°C 13°C
20/06/19 11:50 EGHE 201050Z 26013KT 9999 FEW016CB 15/12 Q1016 W (260°) 15.0mph 15°C 12°C
20/06/19 11:20 EGHE 201020Z 25011KT 9999 VCSH FEW011 SCT015CB 15/14 Q1015 VCSH WSW (250°) 12.7mph 15°C 14°C
20/06/19 10:50 EGHE 200950Z 27009KT 9999 SHRA FEW010 SCT015TCU 13/12 Q1015 SHRA W (270°) 10.4mph 13°C 12°C
20/06/19 09:50 EGHE 200850Z 26012KT 9999 VCSH FEW010 SCT018TCU 15/11 Q1015 VCSH W (260°) 13.8mph 15°C 11°C
20/06/19 09:20 EGHE 200820Z 27012KT 9999 FEW015 15/12 Q1015 W (270°) 13.8mph 15°C 12°C
20/06/19 08:50 EGHE 200750Z 27012KT 9999 FEW012 SCT018 15/12 Q1015 W (270°) 13.8mph 15°C 12°C
20/06/19 07:50 EGHE 200650Z 26010KT 9999 FEW010 SCT019 14/12 Q1014 W (260°) 11.5mph 14°C 12°C
20/06/19 07:20 EGHE 200620Z 26012KT 9999 FEW008 SCT010 13/11 Q1014 W (260°) 13.8mph 13°C 11°C
19/06/19 17:50 EGHE 191650Z 29013KT 9999 FEW015 16/11 Q1012 WNW (290°) 15.0mph 16°C 11°C
19/06/19 17:20 EGHE 191620Z 29015KT 9999 FEW018 16/11 Q1012 WNW (290°) 17.3mph 16°C 11°C
19/06/19 16:50 EGHE 191550Z 29014KT 9999 FEW018 16/11 Q1012 WNW (290°) 16.1mph 16°C 11°C
19/06/19 16:20 EGHE 191520Z 30012KT 9999 FEW018 15/11 Q1012 WNW (300°) 13.8mph 15°C 11°C
19/06/19 15:50 EGHE 191450Z 29014KT 9999 FEW018 17/12 Q1012 WNW (290°) 16.1mph 17°C 12°C
19/06/19 15:20 EGHE 191420Z 29014KT 9999 FEW012 16/12 Q1012 WNW (290°) 16.1mph 16°C 12°C
19/06/19 14:50 EGHE 191350Z 30012KT 9999 FEW012 16/12 Q1012 WNW (300°) 13.8mph 16°C 12°C
19/06/19 14:20 EGHE 191320Z 29013KT 9999 FEW012 16/12 Q1012 WNW (290°) 15.0mph 16°C 12°C
19/06/19 13:50 EGHE 191250Z 31011KT 9999 FEW010 16/12 Q1012 NW (310°) 12.7mph 16°C 12°C
19/06/19 13:20 EGHE 191220Z 31012KT 9999 FEW010 16/13 Q1011 NW (310°) 13.8mph 16°C 13°C
19/06/19 12:50 EGHE 191150Z 31013KT 9999 FEW010 16/13 Q1011 NW (310°) 15.0mph 16°C 13°C
19/06/19 12:20 EGHE 191120Z 31017KT 9999 FEW010 15/12 Q1011 NW (310°) 19.6mph 15°C 12°C
19/06/19 11:50 EGHE 191050Z 31013KT 9999 FEW010 15/13 Q1011 NW (310°) 15.0mph 15°C 13°C
19/06/19 11:20 EGHE 191020Z 31012KT 9999 FEW010 15/13 Q1011 NW (310°) 13.8mph 15°C 13°C
19/06/19 10:50 EGHE 190950Z 31010KT 9999 FEW010 15/13 Q1011 NW (310°) 11.5mph 15°C 13°C
19/06/19 10:20 EGHE 190920Z 31009KT 9999 FEW010 15/13 Q1010 NW (310°) 10.4mph 15°C 13°C
19/06/19 09:50 EGHE 190850Z 31009KT 9999 FEW010 15/13 Q1010 NW (310°) 10.4mph 15°C 13°C
19/06/19 09:20 EGHE 190820Z 32008KT 9999 FEW010 15/13 Q1010 NW (320°) 9.2mph 15°C 13°C
19/06/19 08:50 EGHE 190750Z 32006KT 9999 FEW010 14/14 Q1010 NW (320°) 6.9mph 14°C 14°C
19/06/19 08:20 EGHE 190720Z 33006KT 9999 SCT010 13/13 Q1010 NNW (330°) 6.9mph 13°C 13°C
19/06/19 07:20 EGHE 190620Z 35005KT 9999 SCT005 SCT018 13/12 Q1010 N (350°) 5.8mph 13°C 12°C
18/06/19 17:50 EGHE 181650Z 01008KT 9999 -RA SCT020 13/12 Q1011 -RA N (10°) 9.2mph 13°C 12°C
18/06/19 17:20 EGHE 181620Z 02007KT 9999 -RA SCT020 14/12 Q1011 -RA NNE (20°) 8.1mph 14°C 12°C
18/06/19 16:50 EGHE 181550Z 02009KT 9999 SCT022 14/13 Q1011 NNE (20°) 10.4mph 14°C 13°C
18/06/19 15:50 EGHE 181450Z 06007KT 9999 FEW010 BKN030 14/12 Q1012 ENE (60°) 8.1mph 14°C 12°C
18/06/19 15:20 EGHE 181420Z 07009KT 9999 FEW010 SCT030 14/12 Q1012 ENE (70°) 10.4mph 14°C 12°C
18/06/19 14:50 EGHE 181350Z 07007KT 9999 FEW010 SCT038 14/13 Q1012 ENE (70°) 8.1mph 14°C 13°C
18/06/19 14:20 EGHE 181320Z 06008KT 9999 FEW010 BKN040 14/13 Q1012 ENE (60°) 9.2mph 14°C 13°C
18/06/19 13:50 EGHE 181250Z 08006KT 9999 FEW010 SCT040 14/13 Q1012 E (80°) 6.9mph 14°C 13°C
18/06/19 13:20 EGHE 181220Z 08007KT 9999 FEW008 14/13 Q1012 E (80°) 8.1mph 14°C 13°C
18/06/19 12:50 EGHE 181150Z 07007KT 9999 FEW008 14/13 Q1012 ENE (70°) 8.1mph 14°C 13°C
18/06/19 12:20 EGHE 181120Z 08006KT 9999 FEW005 SCT020 14/13 Q1013 E (80°) 6.9mph 14°C 13°C
18/06/19 11:50 EGHE 181050Z 10007KT 9999 FEW003 SCT020 14/14 Q1013 E (100°) 8.1mph 14°C 14°C